Time;durP1;ratioP1;P1;durP2;ratioP2;P2;SDS_P1;SDS_P2;PMS_P1;PMS_P2;Temp;Humidity;BMP_temperature;BMP_pressure;BME280_temperature;BME280_humidity;BME280_pressure;Samples;Min_cycle;Max_cycle;Signal;HPM_P1;HPM_P2
2021/09/01 00:04:37;;;;;;;5.13;3.65;;;20.80;71.60;;;;;;10335481;28;20370;-57
2021/09/01 00:09:38;;;;;;;9.63;4.05;;;20.80;71.60;;;;;;10356077;28;20050;-57
2021/09/01 00:14:39;;;;;;;6.85;3.55;;;20.80;71.60;;;;;;10335096;28;20475;-58
2021/09/01 00:19:39;;;;;;;4.40;3.17;;;20.80;71.50;;;;;;10347166;28;20034;-57
2021/09/01 00:24:40;;;;;;;5.22;3.17;;;20.80;71.50;;;;;;10336254;28;20089;-58
2021/09/01 00:29:41;;;;;;;6.15;4.13;;;20.80;71.50;;;;;;10345414;28;20088;-58
2021/09/01 00:34:42;;;;;;;6.75;3.42;;;20.80;71.40;;;;;;10347322;28;20501;-58
2021/09/01 00:39:42;;;;;;;5.30;3.30;;;20.80;71.30;;;;;;10335225;28;20522;-57
2021/09/01 00:44:45;;;;;;;5.63;3.70;;;20.70;71.40;;;;;;10334840;28;20054;-57
2021/09/01 00:49:46;;;;;;;5.70;3.60;;;20.80;71.50;;;;;;10335163;28;20030;-58
2021/09/01 00:54:48;;;;;;;5.18;3.08;;;20.80;71.40;;;;;;10339434;28;20060;-57
2021/09/01 00:59:49;;;;;;;6.55;3.42;;;20.70;71.40;;;;;;10333370;28;20041;-58
2021/09/01 01:04:50;;;;;;;3.83;2.65;;;20.80;71.50;;;;;;10334205;28;20023;-58
2021/09/01 01:09:50;;;;;;;6.65;3.58;;;20.80;71.50;;;;;;10342881;28;20030;-58
2021/09/01 01:14:52;;;;;;;7.97;3.85;;;20.70;71.40;;;;;;10333419;28;20617;-58
2021/09/01 01:19:54;;;;;;;6.13;4.05;;;20.80;71.50;;;;;;10344552;28;20044;-58
2021/09/01 01:24:56;;;;;;;5.15;3.63;;;20.70;71.40;;;;;;10333946;28;20034;-58
2021/09/01 01:30:14;;;;;;;5.78;3.45;;;20.70;71.50;;;;;;10333413;28;20026;-58
2021/09/01 01:35:29;;;;;;;5.68;3.33;;;20.70;71.40;;;;;;10356978;28;20042;-57
2021/09/01 01:40:30;;;;;;;7.93;3.97;;;20.70;71.30;;;;;;10333534;28;20038;-58
2021/09/01 01:45:38;;;;;;;6.53;3.47;;;20.70;71.30;;;;;;10332651;28;20046;-58
2021/09/01 01:50:42;;;;;;;6.20;3.33;;;20.70;71.40;;;;;;10332288;28;20105;-58
2021/09/01 01:55:42;;;;;;;4.75;3.22;;;20.70;71.90;;;;;;10338982;28;20117;-57
2021/09/01 02:00:43;;;;;;;9.07;3.63;;;20.70;71.20;;;;;;10331579;28;20109;-58
2021/09/01 02:05:44;;;;;;;5.55;3.35;;;20.70;71.20;;;;;;10332996;28;20042;-58
2021/09/01 02:10:44;;;;;;;6.63;3.75;;;20.70;71.20;;;;;;10332888;28;20019;-58
2021/09/01 02:15:45;;;;;;;4.55;3.22;;;20.70;71.30;;;;;;10332876;28;20026;-58
2021/09/01 02:20:46;;;;;;;5.13;2.78;;;20.70;71.20;;;;;;10334311;28;20038;-58
2021/09/01 02:25:47;;;;;;;7.70;4.32;;;20.70;71.10;;;;;;10340254;28;20177;-58
2021/09/01 02:30:47;;;;;;;5.05;3.72;;;20.70;70.90;;;;;;10340115;28;20049;-58
2021/09/01 02:35:48;;;;;;;7.47;4.25;;;20.70;70.80;;;;;;10340105;28;20586;-58
2021/09/01 02:40:49;;;;;;;5.32;3.75;;;20.70;70.90;;;;;;10339813;28;20027;-58
2021/09/01 02:45:49;;;;;;;6.35;3.78;;;20.70;70.60;;;;;;10339449;28;20133;-57
2021/09/01 02:50:52;;;;;;;4.90;3.00;;;20.70;70.50;;;;;;10339586;28;20129;-58
2021/09/01 02:55:53;;;;;;;5.80;3.20;;;20.70;70.40;;;;;;10346108;28;20042;-58
2021/09/01 03:00:53;;;;;;;6.13;3.60;;;20.70;70.40;;;;;;10341985;28;20058;-57
2021/09/01 03:05:54;;;;;;;5.20;3.75;;;20.70;70.20;;;;;;10338926;28;20474;-58
2021/09/01 03:10:55;;;;;;;6.05;3.70;;;20.60;70.20;;;;;;10346078;28;20440;-58
2021/09/01 03:15:56;;;;;;;8.23;3.95;;;20.60;70.30;;;;;;10340895;28;20030;-58
2021/09/01 03:20:56;;;;;;;6.63;3.70;;;20.60;70.30;;;;;;10351700;28;20475;-59
2021/09/01 03:25:57;;;;;;;6.75;3.28;;;20.60;70.30;;;;;;10337794;28;20058;-58
2021/09/01 03:30:57;;;;;;;5.07;3.40;;;20.60;70.30;;;;;;10338115;28;20037;-58
2021/09/01 03:35:58;;;;;;;5.75;3.42;;;20.60;70.40;;;;;;10337128;28;20030;-58
2021/09/01 03:40:59;;;;;;;6.53;3.63;;;20.60;70.30;;;;;;10349902;28;20030;-58
2021/09/01 03:46:00;;;;;;;8.90;3.47;;;20.60;70.30;;;;;;10347523;28;20153;-58
2021/09/01 03:51:00;;;;;;;5.85;3.75;;;20.60;70.50;;;;;;10337599;28;20110;-58
2021/09/01 03:56:01;;;;;;;5.80;3.53;;;20.60;70.20;;;;;;10341753;28;20136;-58
2021/09/01 04:01:02;;;;;;;5.63;3.22;;;20.60;70.20;;;;;;10337080;28;20471;-58
2021/09/01 04:06:04;;;;;;;7.32;3.92;;;20.60;70.40;;;;;;10348818;28;20041;-58
2021/09/01 04:11:05;;;;;;;6.65;3.25;;;20.60;70.40;;;;;;10336499;28;20403;-58
2021/09/01 04:16:06;;;;;;;6.57;3.63;;;20.60;70.50;;;;;;10336417;28;20038;-58
2021/09/01 04:21:07;;;;;;;7.53;3.60;;;20.60;70.60;;;;;;10351028;28;20117;-58
2021/09/01 04:26:08;;;;;;;6.82;3.63;;;20.60;70.50;;;;;;10342649;28;20491;-57
2021/09/01 04:31:08;;;;;;;7.85;4.25;;;20.50;70.50;;;;;;10335608;28;20034;-57
2021/09/01 04:36:09;;;;;;;5.93;3.53;;;20.50;70.60;;;;;;10338045;28;20027;-58
2021/09/01 04:41:10;;;;;;;6.13;3.47;;;20.50;70.60;;;;;;10350458;28;20026;-57
2021/09/01 04:46:11;;;;;;;5.13;3.10;;;20.50;70.50;;;;;;10349356;28;20438;-57
2021/09/01 04:51:11;;;;;;;4.78;3.70;;;20.50;70.70;;;;;;10349471;28;20160;-58
2021/09/01 04:56:12;;;;;;;5.38;2.92;;;20.50;70.60;;;;;;10352664;28;20034;-58
2021/09/01 05:01:13;;;;;;;6.20;3.97;;;20.50;70.50;;;;;;10351451;28;20363;-58
2021/09/01 05:06:13;;;;;;;6.30;2.92;;;20.50;70.30;;;;;;10348461;28;20084;-58
2021/09/01 05:11:14;;;;;;;5.22;3.10;;;20.50;70.40;;;;;;10349714;28;20427;-59
2021/09/01 05:16:14;;;;;;;7.90;4.22;;;20.50;70.80;;;;;;10352442;28;20053;-58
2021/09/01 05:21:18;;;;;;;6.70;3.50;;;20.50;71.30;;;;;;10348152;28;20125;-57
2021/09/01 05:26:26;;;;;;;6.45;3.53;;;20.60;71.20;;;;;;10335970;28;20029;-58
2021/09/01 05:31:31;;;;;;;6.82;3.90;;;20.60;71.50;;;;;;10340576;28;20025;-57
2021/09/01 05:36:33;;;;;;;7.68;3.72;;;20.60;71.40;;;;;;10333370;28;20038;-57
2021/09/01 05:41:34;;;;;;;10.15;4.15;;;20.60;71.60;;;;;;10355274;28;20475;-56
2021/09/01 05:46:35;;;;;;;11.60;4.50;;;20.60;71.70;;;;;;10349932;28;20033;-57
2021/09/01 05:51:37;;;;;;;10.68;3.95;;;20.60;71.80;;;;;;10335280;28;20109;-57
2021/09/01 05:56:40;;;;;;;15.48;3.80;;;20.70;71.90;;;;;;10323059;28;20022;-54
2021/09/01 06:01:44;;;;;;;8.85;3.70;;;20.60;71.60;;;;;;10351329;28;20030;-56
2021/09/01 06:06:49;;;;;;;8.52;3.80;;;20.60;71.60;;;;;;10342794;28;20080;-56
2021/09/01 06:11:53;;;;;;;11.10;4.18;;;20.60;72.00;;;;;;10341858;28;20834;-57
2021/09/01 06:16:56;;;;;;;14.48;4.55;;;20.60;72.00;;;;;;10356997;28;20030;-57
2021/09/01 06:21:58;;;;;;;10.93;4.20;;;20.60;71.70;;;;;;10342692;28;20038;-57
2021/09/01 06:27:01;;;;;;;17.90;4.32;;;20.60;72.00;;;;;;10357797;28;20046;-58
2021/09/01 06:32:01;;;;;;;16.52;4.35;;;20.60;72.00;;;;;;10354755;28;20190;-57
2021/09/01 06:37:02;;;;;;;13.40;4.53;;;20.70;72.00;;;;;;10355258;28;20115;-57
2021/09/01 06:42:04;;;;;;;13.15;3.88;;;20.70;72.10;;;;;;10346238;28;20057;-57
2021/09/01 06:47:05;;;;;;;13.10;3.92;;;20.70;72.10;;;;;;10361684;28;20022;-58
2021/09/01 06:52:05;;;;;;;8.68;4.68;;;20.60;72.00;;;;;;10356576;28;20037;-58
2021/09/01 06:57:06;;;;;;;10.73;4.00;;;20.70;72.10;;;;;;10358231;28;20383;-57
2021/09/01 07:02:07;;;;;;;10.60;3.95;;;20.70;72.00;;;;;;10356106;28;20122;-56
2021/09/01 07:07:07;;;;;;;10.07;4.05;;;20.60;72.10;;;;;;10352820;28;20410;-57
2021/09/01 07:12:08;;;;;;;10.13;4.60;;;20.70;72.10;;;;;;10349804;28;20056;-57
2021/09/01 07:17:09;;;;;;;10.60;4.07;;;20.60;72.00;;;;;;10359014;28;20038;-57
2021/09/01 07:22:11;;;;;;;9.57;4.22;;;20.60;72.00;;;;;;10352277;28;20092;-57
2021/09/01 07:27:11;;;;;;;10.45;4.55;;;20.60;72.00;;;;;;10348321;28;20026;-57
2021/09/01 07:32:12;;;;;;;10.52;4.20;;;20.60;72.00;;;;;;10347988;28;20113;-57
2021/09/01 07:37:13;;;;;;;8.18;3.90;;;20.60;71.90;;;;;;10353204;28;20053;-56
2021/09/01 07:42:13;;;;;;;9.63;4.10;;;20.60;71.80;;;;;;10353428;28;20054;-59
2021/09/01 07:47:14;;;;;;;7.35;4.20;;;20.60;71.80;;;;;;10360505;28;20029;-59
2021/09/01 07:52:15;;;;;;;8.45;3.97;;;20.60;71.70;;;;;;10335710;28;20434;-59
2021/09/01 07:57:15;;;;;;;8.70;3.95;;;20.60;71.70;;;;;;10335037;28;20117;-59
2021/09/01 08:02:16;;;;;;;6.75;4.00;;;20.50;71.70;;;;;;10354776;28;20030;-58
2021/09/01 08:07:17;;;;;;;8.27;4.30;;;20.60;71.70;;;;;;10337608;28;20058;-59
2021/09/01 08:12:18;;;;;;;8.43;4.38;;;20.50;71.60;;;;;;10345322;28;20083;-59
2021/09/01 08:17:19;;;;;;;6.78;3.78;;;20.60;71.60;;;;;;10352890;28;20034;-59
2021/09/01 08:22:20;;;;;;;7.18;3.88;;;20.50;71.50;;;;;;10341116;28;20482;-59
2021/09/01 08:27:20;;;;;;;7.78;3.85;;;20.50;71.50;;;;;;10335630;28;20085;-58
2021/09/01 08:32:21;;;;;;;8.80;3.95;;;20.50;71.40;;;;;;10335290;28;20083;-58
2021/09/01 08:37:22;;;;;;;11.77;4.25;;;20.50;71.30;;;;;;10335261;28;20530;-59
2021/09/01 08:42:23;;;;;;;7.22;3.47;;;20.50;71.30;;;;;;10338815;28;20581;-59
2021/09/01 08:47:24;;;;;;;7.70;4.28;;;20.50;71.30;;;;;;10334422;28;20470;-58
2021/09/01 08:52:24;;;;;;;9.30;4.10;;;20.50;71.30;;;;;;10334392;28;20462;-59
2021/09/01 08:57:25;;;;;;;9.95;4.15;;;20.50;71.30;;;;;;10338887;28;20415;-58
2021/09/01 09:02:29;;;;;;;8.23;5.07;;;20.50;71.10;;;;;;10340275;28;20537;-59
2021/09/01 09:07:30;;;;;;;7.05;4.00;;;20.50;71.30;;;;;;10336538;28;20085;-60
2021/09/01 09:12:32;;;;;;;9.90;3.95;;;20.50;71.00;;;;;;10343465;28;20080;-59
2021/09/01 09:17:36;;;;;;;7.57;4.30;;;20.50;71.30;;;;;;10340875;28;20037;-60
2021/09/01 09:22:40;;;;;;;7.15;3.70;;;20.50;71.30;;;;;;10339723;28;20109;-59
2021/09/01 09:27:52;;;;;;;7.13;4.10;;;20.50;71.30;;;;;;10333162;28;20150;-59
2021/09/01 09:32:54;;;;;;;12.27;3.97;;;20.50;71.30;;;;;;10347655;28;20507;-60
2021/09/01 09:38:06;;;;;;;6.93;3.88;;;20.50;71.30;;;;;;10362263;28;20030;-59
2021/09/01 09:43:19;;;;;;;6.55;3.83;;;20.50;71.30;;;;;;10372882;28;20121;-59
2021/09/01 09:48:31;;;;;;;6.13;3.88;;;20.50;71.30;;;;;;10371451;28;20116;-58
2021/09/01 09:53:46;;;;;;;7.63;3.45;;;20.50;71.10;;;;;;10352999;28;20030;-60
2021/09/01 09:58:52;;;;;;;4.43;3.22;;;20.50;70.70;;;;;;10332496;28;20034;-59
2021/09/01 10:03:54;;;;;;;9.18;3.92;;;20.50;70.90;;;;;;10336000;28;20041;-59
2021/09/01 10:08:55;;;;;;;17.58;4.70;;;20.50;71.10;;;;;;10340680;28;20053;-60
2021/09/01 10:13:55;;;;;;;14.63;5.03;;;20.60;71.40;;;;;;10342620;28;20058;-60
2021/09/01 10:19:13;;;;;;;19.20;4.63;;;20.60;71.80;;;;;;10343196;28;20034;-59
2021/09/01 10:24:41;;;;;;;11.35;4.07;;;20.70;71.80;;;;;;10345551;28;20482;-58
2021/09/01 10:30:07;;;;;;;8.10;3.92;;;20.60;72.00;;;;;;10349675;28;20033;-59
2021/09/01 10:35:11;;;;;;;8.85;3.95;;;20.70;72.10;;;;;;10338073;28;20402;-59
2021/09/01 10:40:34;;;;;;;13.63;4.32;;;20.70;72.00;;;;;;10347801;28;20112;-59
2021/09/01 10:45:35;;;;;;;11.02;4.75;;;20.70;72.20;;;;;;10350881;28;20030;-59
2021/09/01 10:50:39;;;;;;;15.32;4.53;;;20.70;72.20;;;;;;10355670;28;20030;-58
2021/09/01 10:55:50;;;;;;;13.45;4.05;;;20.70;72.40;;;;;;10345676;28;20042;-61
2021/09/01 11:00:55;;;;;;;11.77;5.03;;;20.70;72.10;;;;;;10339151;28;20030;-59
2021/09/01 11:06:08;;;;;;;9.38;3.88;;;20.70;72.30;;;;;;10347304;28;20458;-60
2021/09/01 11:11:09;;;;;;;13.05;4.03;;;20.70;72.30;;;;;;10372314;28;20034;-60
2021/09/01 11:16:21;;;;;;;18.10;4.78;;;20.70;72.30;;;;;;10342019;28;20446;-59
2021/09/01 11:21:22;;;;;;;15.10;5.32;;;20.70;72.30;;;;;;10351120;28;20040;-60
2021/09/01 11:26:28;;;;;;;27.25;5.78;;;20.70;72.40;;;;;;10348778;28;20037;-60
2021/09/01 11:31:29;;;;;;;21.95;5.03;;;20.70;72.30;;;;;;10351002;28;20022;-60
2021/09/01 11:36:31;;;;;;;29.00;6.05;;;20.70;72.30;;;;;;10350273;28;20034;-60
2021/09/01 11:41:31;;;;;;;28.58;5.78;;;20.70;72.20;;;;;;10337316;28;20449;-59
2021/09/01 11:46:35;;;;;;;29.50;5.70;;;20.70;72.30;;;;;;10337111;28;20117;-59
2021/09/01 11:51:39;;;;;;;23.83;7.30;;;20.70;72.10;;;;;;10351908;28;20026;-59
2021/09/01 11:56:40;;;;;;;18.38;5.07;;;20.70;72.50;;;;;;10349345;28;20061;-60
2021/09/01 12:01:47;;;;;;;29.02;6.05;;;20.70;72.20;;;;;;10338360;28;20471;-60
2021/09/01 12:06:58;;;;;;;43.75;7.78;;;20.70;72.30;;;;;;10349671;28;20131;-60
2021/09/01 12:12:02;;;;;;;29.42;5.70;;;20.70;72.30;;;;;;10349520;28;20030;-59
2021/09/01 12:17:21;;;;;;;25.50;6.20;;;20.80;72.60;;;;;;10351260;28;20050;-59
2021/09/01 12:22:36;;;;;;;19.30;5.32;;;20.70;72.50;;;;;;10352199;28;20037;-61
2021/09/01 12:28:15;;;;;;;22.45;5.72;;;20.80;72.70;;;;;;10352732;28;20022;-60
2021/09/01 12:33:19;;;;;;;21.85;5.72;;;20.80;72.80;;;;;;10358481;28;20058;-59
2021/09/01 12:38:26;;;;;;;22.15;5.57;;;20.80;72.50;;;;;;10375930;28;20026;-60
2021/09/01 12:43:37;;;;;;;25.00;6.15;;;20.70;72.20;;;;;;10356004;28;20042;-59
2021/09/01 12:48:41;;;;;;;25.95;8.13;;;20.70;72.20;;;;;;10361853;28;20026;-60
2021/09/01 12:53:42;;;;;;;23.38;5.95;;;20.70;72.30;;;;;;10341524;28;20045;-60
2021/09/01 12:58:43;;;;;;;28.33;6.78;;;20.70;72.30;;;;;;10334385;28;20042;-59
2021/09/01 13:03:43;;;;;;;13.10;4.68;;;20.70;72.30;;;;;;10334476;28;20088;-60
2021/09/01 13:08:44;;;;;;;27.35;6.53;;;20.70;72.20;;;;;;10336517;28;20124;-60
2021/09/01 13:13:44;;;;;;;22.60;5.97;;;20.70;72.20;;;;;;10340646;28;20506;-60
2021/09/01 13:18:45;;;;;;;17.95;5.63;;;20.70;72.10;;;;;;10341159;28;20121;-60
2021/09/01 13:23:46;;;;;;;22.38;6.38;;;20.70;72.00;;;;;;10347111;28;20113;-60
2021/09/01 13:28:46;;;;;;;19.33;6.10;;;20.70;72.10;;;;;;10365496;28;20045;-59
2021/09/01 13:33:48;;;;;;;28.63;6.50;;;20.70;72.10;;;;;;10373682;28;20082;-61
2021/09/01 13:38:49;;;;;;;27.55;5.38;;;20.70;72.20;;;;;;10348261;28;20033;-60
2021/09/01 13:43:50;;;;;;;26.92;5.40;;;20.70;72.20;;;;;;10333283;28;20060;-60
2021/09/01 13:48:50;;;;;;;19.98;5.50;;;20.70;72.40;;;;;;10333067;28;20015;-59
2021/09/01 13:53:51;;;;;;;23.90;5.93;;;20.80;72.20;;;;;;10332683;28;20058;-59
2021/09/01 13:58:52;;;;;;;23.20;5.93;;;20.90;71.40;;;;;;10343867;28;20374;-59
2021/09/01 14:03:55;;;;;;;19.60;5.32;;;20.80;71.70;;;;;;10347174;28;20386;-59
2021/09/01 14:08:55;;;;;;;13.30;4.38;;;20.80;71.70;;;;;;10344750;28;20050;-59
2021/09/01 14:13:56;;;;;;;20.00;5.43;;;20.70;71.40;;;;;;10346796;28;20030;-59
2021/09/01 14:18:58;;;;;;;15.50;5.03;;;20.70;71.70;;;;;;10341961;28;20108;-59
2021/09/01 14:23:59;;;;;;;16.25;5.22;;;20.70;71.40;;;;;;10339161;28;20033;-59
2021/09/01 14:28:59;;;;;;;14.35;4.45;;;20.70;71.40;;;;;;10354857;28;20073;-59
2021/09/01 14:34:00;;;;;;;14.48;5.15;;;20.70;71.40;;;;;;10341812;28;20042;-60
2021/09/01 14:39:01;;;;;;;22.35;5.05;;;20.70;71.40;;;;;;10344642;28;20117;-59
2021/09/01 14:44:01;;;;;;;12.40;4.32;;;20.70;71.20;;;;;;10373078;28;20038;-60
2021/09/01 14:49:02;;;;;;;13.77;5.07;;;20.70;71.20;;;;;;10360595;28;20029;-61
2021/09/01 14:54:03;;;;;;;10.85;4.22;;;20.70;71.10;;;;;;10339372;28;20437;-61
2021/09/01 14:59:04;;;;;;;11.45;3.80;;;20.70;71.20;;;;;;10354261;28;20034;-60
2021/09/01 15:04:04;;;;;;;9.23;4.43;;;20.60;71.00;;;;;;10341287;28;20415;-60
2021/09/01 15:09:05;;;;;;;8.52;3.50;;;20.70;71.20;;;;;;10353495;28;20041;-59
2021/09/01 15:14:06;;;;;;;8.90;4.15;;;20.60;71.10;;;;;;10349006;28;20161;-59
2021/09/01 15:19:06;;;;;;;11.80;4.00;;;20.70;71.20;;;;;;10351133;28;20120;-60
2021/09/01 15:24:07;;;;;;;11.02;3.25;;;20.70;71.20;;;;;;10352607;28;20030;-60
2021/09/01 15:29:08;;;;;;;9.57;3.40;;;20.60;71.20;;;;;;10371947;28;20076;-60
2021/09/01 15:34:09;;;;;;;11.07;4.82;;;20.60;71.20;;;;;;10340952;28;20061;-60
2021/09/01 15:39:10;;;;;;;8.10;3.50;;;20.60;71.20;;;;;;10361879;28;20042;-59
2021/09/01 15:44:17;;;;;;;7.10;3.50;;;20.70;71.30;;;;;;10350989;28;20042;-59
2021/09/01 15:49:18;;;;;;;8.68;3.53;;;20.70;71.10;;;;;;10352665;28;20022;-59
2021/09/01 15:54:21;;;;;;;14.38;3.53;;;20.60;71.20;;;;;;10349089;28;20031;-54
2021/09/01 15:59:24;;;;;;;18.08;4.78;;;20.60;70.90;;;;;;10347472;28;20411;-51
2021/09/01 16:04:26;;;;;;;20.52;6.70;;;20.70;72.20;;;;;;10335742;28;20037;-52
2021/09/01 16:09:26;;;;;;;23.17;9.40;;;20.80;74.40;;;;;;10336477;28;20033;-56
2021/09/01 16:14:55;;;;;;;20.92;9.65;;;20.80;73.70;;;;;;10344906;28;20109;-57
2021/09/01 16:20:03;;;;;;;16.52;9.20;;;20.90;74.60;;;;;;10348972;28;20435;-57
2021/09/01 16:25:05;;;;;;;21.87;9.30;;;20.90;74.30;;;;;;10336531;28;20031;-57
2021/09/01 16:30:07;;;;;;;19.55;9.40;;;20.90;74.20;;;;;;10341062;28;20035;-57
2021/09/01 16:35:11;;;;;;;23.42;9.50;;;20.90;74.80;;;;;;10344998;28;20440;-59
2021/09/01 16:40:12;;;;;;;19.67;8.50;;;20.90;74.20;;;;;;10336841;28;20041;-57
2021/09/01 16:45:14;;;;;;;19.80;7.50;;;20.90;73.70;;;;;;10350100;28;20042;-57
2021/09/01 16:50:16;;;;;;;23.30;8.55;;;20.90;73.50;;;;;;10366543;28;20026;-56
2021/09/01 16:55:20;;;;;;;12.15;7.35;;;20.90;74.00;;;;;;10362279;28;20038;-56
2021/09/01 17:00:21;;;;;;;19.23;8.00;;;20.90;73.50;;;;;;10341463;28;20030;-56
2021/09/01 17:05:22;;;;;;;13.30;7.63;;;20.80;73.40;;;;;;10332704;28;20044;-57
2021/09/01 17:10:23;;;;;;;14.38;6.72;;;20.80;73.40;;;;;;10341100;28;20142;-58
2021/09/01 17:15:24;;;;;;;17.25;6.72;;;20.80;73.30;;;;;;10349267;28;20391;-56
2021/09/01 17:20:26;;;;;;;14.82;6.53;;;20.90;73.10;;;;;;10343370;28;20121;-54
2021/09/01 17:25:28;;;;;;;14.30;6.55;;;20.80;72.90;;;;;;10347620;28;20030;-57
2021/09/01 17:30:29;;;;;;;14.45;5.90;;;20.80;73.10;;;;;;10338710;28;20369;-57
2021/09/01 17:35:31;;;;;;;13.88;6.57;;;20.80;73.20;;;;;;10331270;28;20113;-56
2021/09/01 17:40:34;;;;;;;14.55;5.80;;;20.80;73.10;;;;;;10342834;28;20029;-57
2021/09/01 17:45:35;;;;;;;14.60;5.85;;;20.80;73.00;;;;;;10354269;28;20511;-55
2021/09/01 17:50:36;;;;;;;20.38;6.43;;;20.80;73.10;;;;;;10342694;28;20080;-56
2021/09/01 17:55:37;;;;;;;10.60;6.18;;;20.80;73.10;;;;;;10346930;28;20053;-58
2021/09/01 18:00:38;;;;;;;17.38;5.63;;;20.80;73.10;;;;;;10343936;28;20037;-57
2021/09/01 18:05:39;;;;;;;12.20;6.05;;;20.80;72.90;;;;;;10347676;28;20118;-56
2021/09/01 18:10:39;;;;;;;16.33;6.13;;;20.80;73.00;;;;;;10340496;28;20037;-57
2021/09/01 18:15:41;;;;;;;9.90;4.90;;;20.80;73.40;;;;;;10332451;28;20039;-55
2021/09/01 18:20:41;;;;;;;11.80;6.20;;;20.80;73.20;;;;;;10353912;28;20049;-56
2021/09/01 18:25:42;;;;;;;16.40;5.35;;;20.80;73.80;;;;;;10345058;28;20117;-57
2021/09/01 18:30:43;;;;;;;11.25;4.88;;;20.80;74.00;;;;;;10347755;28;20065;-57
2021/09/01 18:35:43;;;;;;;11.90;4.95;;;20.80;73.90;;;;;;10344762;28;20034;-57
2021/09/01 18:40:49;;;;;;;13.43;5.45;;;20.90;73.80;;;;;;10344410;28;20062;-55
2021/09/01 18:45:50;;;;;;;15.02;5.90;;;20.90;73.90;;;;;;10332989;28;20081;-58
2021/09/01 18:50:51;;;;;;;13.35;5.03;;;20.90;74.00;;;;;;10335574;28;20121;-58
2021/09/01 18:55:52;;;;;;;15.05;5.25;;;20.90;73.20;;;;;;10350933;28;20080;-59
2021/09/01 19:01:00;;;;;;;9.90;4.80;;;20.90;73.50;;;;;;10344355;28;20034;-59
2021/09/01 19:06:19;;;;;;;10.90;4.80;;;20.80;73.40;;;;;;10342637;28;20436;-57
2021/09/01 19:11:22;;;;;;;14.18;6.13;;;20.80;73.50;;;;;;10348953;28;20034;-59
2021/09/01 19:16:25;;;;;;;8.98;4.63;;;20.80;73.50;;;;;;10346001;28;20034;-58
2021/09/01 19:21:26;;;;;;;9.60;4.75;;;20.80;73.50;;;;;;10348085;28;20061;-59
2021/09/01 19:26:28;;;;;;;10.30;4.70;;;20.80;73.60;;;;;;10341101;28;20623;-59
2021/09/01 19:31:35;;;;;;;7.80;4.10;;;20.80;73.50;;;;;;10340478;28;20030;-59
2021/09/01 19:36:36;;;;;;;9.18;4.15;;;20.70;73.40;;;;;;10352642;28;20532;-59
2021/09/01 19:41:37;;;;;;;10.48;4.57;;;20.70;73.40;;;;;;10345672;28;20404;-58
2021/09/01 19:46:38;;;;;;;9.57;4.22;;;20.70;73.20;;;;;;10344914;28;20117;-59
2021/09/01 19:51:40;;;;;;;8.73;4.38;;;20.70;73.20;;;;;;10339859;28;20034;-59
2021/09/01 19:56:43;;;;;;;8.90;4.75;;;20.70;73.20;;;;;;10350729;28;20124;-59
2021/09/01 20:01:45;;;;;;;10.48;4.25;;;20.70;73.20;;;;;;10345308;28;20069;-59
2021/09/01 20:06:48;;;;;;;6.38;3.80;;;20.70;73.10;;;;;;10344007;28;20490;-59
2021/09/01 20:11:50;;;;;;;6.15;3.72;;;20.70;73.30;;;;;;10336289;28;20042;-59
2021/09/01 20:16:59;;;;;;;7.82;4.15;;;20.70;72.90;;;;;;10343700;28;20026;-59
2021/09/01 20:22:02;;;;;;;9.27;4.47;;;20.60;72.90;;;;;;10336123;28;20113;-59
2021/09/01 20:27:03;;;;;;;9.43;4.28;;;20.60;72.80;;;;;;10347578;28;20569;-59
2021/09/01 20:32:06;;;;;;;10.77;4.68;;;20.70;72.80;;;;;;10340541;28;20448;-59
2021/09/01 20:37:07;;;;;;;6.65;3.97;;;20.70;72.80;;;;;;10343390;28;20121;-59
2021/09/01 20:42:11;;;;;;;9.50;4.22;;;20.70;72.80;;;;;;10335781;28;20145;-59
2021/09/01 20:47:51;;;;;;;7.22;4.68;;;20.60;72.70;;;;;;10345659;28;20360;-59
2021/09/01 20:53:01;;;;;;;6.30;4.93;;;20.60;72.60;;;;;;10337454;28;20026;-57
2021/09/01 20:58:02;;;;;;;10.95;5.93;;;20.60;72.80;;;;;;10337337;28;20041;-59
2021/09/01 21:03:03;;;;;;;7.20;4.05;;;20.60;72.90;;;;;;10336756;28;20041;-59
2021/09/01 21:08:04;;;;;;;9.00;4.53;;;20.60;72.80;;;;;;10339473;28;20447;-59
2021/09/01 21:13:05;;;;;;;6.65;4.30;;;20.60;72.70;;;;;;10337644;28;20031;-59
2021/09/01 21:18:12;;;;;;;8.25;4.68;;;20.60;72.70;;;;;;10346599;28;20042;-59
2021/09/01 21:23:15;;;;;;;6.13;4.43;;;20.60;72.60;;;;;;10334403;28;20049;-59
2021/09/01 21:28:22;;;;;;;6.57;4.03;;;20.60;72.60;;;;;;10344766;28;20026;-58
2021/09/01 21:33:24;;;;;;;8.23;5.32;;;20.60;72.60;;;;;;10352121;28;20081;-59
2021/09/01 21:38:25;;;;;;;9.43;4.45;;;20.60;72.70;;;;;;10343404;28;20037;-59
2021/09/01 21:43:27;;;;;;;5.00;4.15;;;20.60;72.60;;;;;;10345152;28;20054;-59
2021/09/01 21:48:28;;;;;;;8.30;5.13;;;20.60;72.70;;;;;;10341161;28;20419;-59
2021/09/01 21:53:28;;;;;;;5.43;4.18;;;20.60;72.70;;;;;;10341193;28;20125;-59
2021/09/01 21:58:31;;;;;;;7.18;5.28;;;20.60;72.70;;;;;;10328214;28;20121;-59
2021/09/01 22:03:31;;;;;;;9.32;5.47;;;20.50;72.60;;;;;;10338396;28;20062;-59
2021/09/01 22:08:32;;;;;;;6.47;4.38;;;20.50;72.60;;;;;;10334074;28;20073;-59
2021/09/01 22:13:33;;;;;;;5.95;4.80;;;20.50;72.70;;;;;;10336626;28;20109;-59
2021/09/01 22:18:34;;;;;;;6.75;5.07;;;20.50;72.60;;;;;;10345602;28;20069;-59
2021/09/01 22:23:34;;;;;;;7.97;4.95;;;20.50;72.70;;;;;;10333935;28;20041;-59
2021/09/01 22:28:35;;;;;;;6.47;4.40;;;20.50;72.60;;;;;;10352189;28;20034;-58
2021/09/01 22:33:37;;;;;;;7.22;4.88;;;20.50;72.60;;;;;;10335740;28;20061;-59
2021/09/01 22:38:37;;;;;;;8.07;5.47;;;20.50;72.60;;;;;;10342389;28;20034;-59
2021/09/01 22:43:38;;;;;;;7.85;5.60;;;20.50;72.60;;;;;;10345442;28;20129;-59
2021/09/01 22:48:39;;;;;;;6.80;5.28;;;20.50;72.60;;;;;;10353109;28;20030;-59
2021/09/01 22:53:40;;;;;;;6.45;5.28;;;20.50;72.50;;;;;;10349326;28;20048;-59
2021/09/01 22:58:40;;;;;;;9.02;5.95;;;20.50;72.60;;;;;;10341012;28;20116;-59
2021/09/01 23:03:41;;;;;;;6.43;5.38;;;20.50;72.50;;;;;;10346266;28;20042;-59
2021/09/01 23:08:42;;;;;;;7.82;5.80;;;20.50;72.60;;;;;;10338962;28;20037;-59
2021/09/01 23:13:43;;;;;;;8.02;5.53;;;20.50;72.60;;;;;;10362584;28;20113;-59
2021/09/01 23:18:43;;;;;;;7.57;5.32;;;20.50;72.50;;;;;;10354883;28;20105;-59
2021/09/01 23:23:44;;;;;;;7.18;5.00;;;20.50;72.50;;;;;;10358254;28;20065;-59
2021/09/01 23:28:45;;;;;;;5.88;4.80;;;20.50;72.50;;;;;;10350284;28;20050;-59
2021/09/01 23:33:45;;;;;;;8.02;6.13;;;20.50;72.60;;;;;;10360857;28;20430;-59
2021/09/01 23:38:46;;;;;;;7.78;5.82;;;20.50;72.50;;;;;;10349833;28;20100;-59
2021/09/01 23:43:47;;;;;;;9.88;5.95;;;20.50;72.50;;;;;;10346395;28;20062;-59
2021/09/01 23:48:48;;;;;;;7.22;5.38;;;20.50;72.50;;;;;;10343008;28;20037;-59
2021/09/01 23:53:48;;;;;;;7.72;5.85;;;20.50;72.40;;;;;;10344084;28;20105;-59
2021/09/01 23:58:49;;;;;;;8.02;5.80;;;20.50;72.40;;;;;;10361509;28;20084;-59
